ADDS METAR Data INFO
IDs: Format: Raw Decoded Include TAF

Data at: 2345 UTC 15 Dec 2017

K1P1 152335Z AUTO 00000KT 10SM BKN060 OVC070 M08/M12 A2985 RMK AO2 T10791118
K1P1 152315Z AUTO 00000KT 10SM SCT070 OVC090 M08/M12 A2986 RMK AO2 T10801122
K1P1 152255Z AUTO 00000KT 10SM OVC100 M08/M13 A2987 RMK AO2 T10771130
K1P1 152235Z AUTO 00000KT 10SM BKN110 M07/M13 A2987 RMK AO2 T10741129
K1P1 152215Z AUTO 00000KT 10SM BKN120 M07/M13 A2988 RMK AO2 T10721130
K1P1 152155Z AUTO 00000KT 10SM BKN120 M07/M12 A2989 RMK AO2 T10731125
K1P1 152135Z AUTO 00000KT 10SM BKN110 M06/M13 A2989 RMK AO2 T10591135
K1P1 152115Z AUTO 00000KT 10SM OVC110 M06/M13 A2990 RMK AO2 T10561132
K1P1 152055Z AUTO 00000KT 10SM OVC110 M05/M13 A2991 RMK AO2 T10541132
K1P1 152035Z AUTO 00000KT 10SM BKN110 M05/M13 A2991 RMK AO2 T10531133
K1P1 152015Z AUTO 00000KT 10SM SCT120 M05/M14 A2992 RMK AO2 T10501136
K1P1 151955Z AUTO 00000KT 10SM CLR M05/M14 A2992 RMK AO2 T10481137
K1P1 151935Z AUTO 14003KT 10SM CLR M05/M14 A2992 RMK AO2 T10471140
K1P1 151915Z AUTO 00000KT 10SM CLR M05/M14 A2992 RMK AO2 T10501145
K1P1 151855Z AUTO 00000KT 10SM CLR M04/M15 A2992 RMK AO2 T10451150
K1P1 151835Z AUTO 00000KT 10SM CLR M04/M16 A2993 RMK AO2 T10451161
K1P1 151815Z AUTO 00000KT 10SM CLR M04/M16 A2994 RMK AO2 T10431163
K1P1 151755Z AUTO 00000KT 10SM CLR M05/M16 A2994 RMK AO2 T10511161 11050 21221
K1P1 151735Z AUTO 00000KT 10SM CLR M05/M16 A2996 RMK AO2 T10511159
K1P1 151715Z AUTO 00000KT 10SM CLR M06/M15 A2997 RMK AO2 T10581153
K1P1 151655Z AUTO 00000KT 10SM CLR M06/M16 A2998 RMK AO2 T10651156
K1P1 151635Z AUTO 00000KT 10SM CLR M07/M15 A2999 RMK AO2 T10681155
K1P1 151615Z AUTO 28006KT 10SM CLR M07/M16 A2999 RMK AO2 T10731157
K1P1 151555Z AUTO 26006KT 10SM CLR M08/M16 A3001 RMK AO2 T10821160
K1P1 151535Z AUTO 28005KT 10SM CLR M10/M16 A3002 RMK AO2 T10961165
K1P1 151515Z AUTO 29003KT 10SM CLR M12/M17 A3003 RMK AO2 T11171166
K1P1 151455Z AUTO 00000KT 10SM CLR M14/M16 A3003 RMK AO2 T11421161
K1P1 151435Z AUTO 00000KT 10SM CLR M15/M17 A3003 RMK AO2 T11551174
K1P1 151415Z AUTO 00000KT 10SM CLR M17/M19 A3003 RMK AO2 T11691187
K1P1 151355Z AUTO 00000KT 10SM CLR M18/M20 A3003 RMK AO2 T11801199
K1P1 151335Z AUTO 00000KT 10SM CLR M20/M22 A3003 RMK AO2 T12021222
K1P1 151315Z AUTO 00000KT 10SM CLR M20/M22 A3002 RMK AO2 T12031222
K1P1 151255Z AUTO 00000KT 10SM CLR M21/M23 A3001 RMK AO2 T12151235
K1P1 151235Z AUTO 00000KT 10SM CLR M21/M23 A3001 RMK AO2 T12151234
K1P1 151215Z AUTO 00000KT 10SM CLR M22/M24 A3001 RMK AO2 T12161237
K1P1 151155Z AUTO 00000KT 10SM CLR M21/M23 A3001 RMK AO2 T12151234 11132 21216
K1P1 151135Z AUTO 00000KT 10SM CLR M21/M23 A3001 RMK AO2 T12121232
K1P1 151115Z AUTO 00000KT 10SM CLR M21/M23 A3001 RMK AO2 T12101230
K1P1 151055Z AUTO 00000KT 10SM CLR M21/M23 A3000 RMK AO2 T12101231
K1P1 151035Z AUTO 00000KT 10SM CLR M20/M22 A2999 RMK AO2 T12051224
K1P1 151015Z AUTO 00000KT 10SM CLR M20/M22 A2999 RMK AO2 T12051223
K1P1 150955Z AUTO 00000KT 10SM CLR M19/M21 A2999 RMK AO2 T11941214
K1P1 150935Z AUTO 26003KT 7SM CLR M19/M21 A2998 RMK AO2 T11891207
K1P1 150915Z AUTO 27004KT 10SM CLR M18/M20 A2998 RMK AO2 T11851202
K1P1 150855Z AUTO 00000KT 10SM CLR M19/M20 A2998 RMK AO2 T11881205
K1P1 150835Z AUTO 00000KT 10SM CLR M18/M20 A2998 RMK AO2 T11801200
K1P1 150815Z AUTO 00000KT 10SM CLR M17/M19 A2998 RMK AO2 T11751194
K1P1 150755Z AUTO 00000KT 10SM CLR M17/M20 A2998 RMK AO2 T11741200
K1P1 150735Z AUTO 27003KT 10SM CLR M16/M20 A2997 RMK AO2 T11571199
K1P1 150715Z AUTO 29004KT 10SM CLR M14/M20 A2997 RMK AO2 T11391198
K1P1 150655Z AUTO 29005KT 10SM CLR M14/M20 A2996 RMK AO2 T11411200
K1P1 150635Z AUTO 28005KT 10SM CLR M13/M20 A2996 RMK AO2 T11331197
K1P1 150615Z AUTO 30007KT 10SM CLR M13/M20 A2995 RMK AO2 T11351197
K1P1 150555Z AUTO 29005KT 10SM CLR M13/M19 A2995 RMK AO2 T11321195 11108 21135
K1P1 150535Z AUTO 29005KT 10SM CLR M13/M19 A2994 RMK AO2 T11321194
K1P1 150515Z AUTO 29005KT 10SM CLR M13/M19 A2994 RMK AO2 T11321194
K1P1 150455Z AUTO 29005KT 10SM CLR M13/M19 A2994 RMK AO2 T11341195
K1P1 150435Z AUTO 29004KT 10SM CLR M13/M19 A2994 RMK AO2 T11301195
K1P1 150415Z AUTO 29007KT 10SM CLR M13/M19 A2993 RMK AO2 T11271195
K1P1 150355Z AUTO 30006KT 10SM CLR M13/M19 A2992 RMK AO2 T11291195 410601138
K1P1 150335Z AUTO 30005KT 10SM CLR M13/M19 A2991 RMK AO2 T11261192
K1P1 150315Z AUTO 30006KT 10SM CLR M12/M19 A2991 RMK AO2 T11251190
K1P1 150255Z AUTO 30005KT 10SM CLR M12/M19 A2989 RMK AO2 T11241190
K1P1 150235Z AUTO 31006KT 10SM CLR M12/M19 A2988 RMK AO2 T11221189
K1P1 150215Z AUTO 30006KT 10SM CLR M12/M19 A2987 RMK AO2 T11201188
K1P1 150155Z AUTO 31005KT 10SM CLR M12/M19 A2985 RMK AO2 T11161187
K1P1 150135Z AUTO 30006KT 10SM CLR M12/M19 A2984 RMK AO2 T11171187
K1P1 150115Z AUTO 31006KT 10SM CLR M11/M19 A2984 RMK AO2 T11131186
K1P1 150055Z AUTO 31005KT 10SM CLR M11/M18 A2983 RMK AO2 T11151185
K1P1 150035Z AUTO 32006KT 10SM CLR M11/M19 A2983 RMK AO2 T11131186
K1P1 150015Z AUTO 30003KT 10SM CLR M11/M18 A2983 RMK AO2 T11111185
K1P1 142355Z AUTO 29004KT 10SM CLR M11/M18 A2982 RMK AO2 T11101185 11060 21110
K1P1 142335Z AUTO 30004KT 10SM CLR M11/M19 A2981 RMK AO2 T11101187
K1P1 142315Z AUTO 00000KT 10SM CLR M10/M19 A2980 RMK AO2 T11011187
K1P1 142255Z AUTO 00000KT 10SM CLR M10/M19 A2979 RMK AO2 T11001188
K1P1 142235Z AUTO 00000KT 10SM CLR M10/M19 A2977 RMK AO2 T10961190
K1P1 142215Z AUTO 30003KT 10SM CLR M09/M19 A2976 RMK AO2 T10911189
K1P1 142155Z AUTO 29003KT 10SM CLR M09/M19 A2974 RMK AO2 T10891190
K1P1 142135Z AUTO 00000KT 10SM CLR M08/M19 A2972 RMK AO2 T10841191
K1P1 142115Z AUTO 00000KT 10SM CLR M08/M19 A2971 RMK AO2 T10801193
K1P1 142055Z AUTO 29005KT 10SM CLR M08/M19 A2970 RMK AO2 T10761194
K1P1 142035Z AUTO 28004KT 10SM CLR M07/M19 A2969 RMK AO2 T10721192
K1P1 142015Z AUTO 28008KT 10SM CLR M06/M19 A2969 RMK AO2 T10641191
K1P1 141955Z AUTO 30008G15KT 10SM CLR M06/M19 A2967 RMK AO2 T10621191
K1P1 141935Z AUTO 31011G17KT 10SM CLR M06/M19 A2966 RMK AO2 T10611190
K1P1 141915Z AUTO 30006KT 10SM CLR M06/M19 A2965 RMK AO2 T10601194
K1P1 141855Z AUTO 30011G18KT 10SM CLR M06/M19 A2964 RMK AO2 T10611192
K1P1 141835Z AUTO 31017G21KT 2 1/2SM -SN CLR M06/M19 A2963 RMK AO2 VIS 1V5 T10611191
K1P1 141815Z AUTO 31010G20KT 2 1/2SM HZ CLR M06/M18 A2962 RMK AO2 VIS 1V5 T10611183
K1P1 141755Z AUTO 30011G20KT 4SM HZ CLR M06/M18 A2961 RMK AO2 T10631179 11061 21116
K1P1 141735Z AUTO 30009KT 280V340 10SM CLR M06/M17 A2961 RMK AO2 T10621175
K1P1 141715Z AUTO 30013G18KT 2 1/2SM -SN CLR M06/M18 A2961 RMK AO2 VIS 3/4V5 T10611176
K1P1 141655Z AUTO 32014G22KT 3SM HZ CLR M06/M17 A2959 RMK AO2 T10651174
K1P1 141635Z AUTO 30006KT 10SM CLR M07/M17 A2960 RMK AO2 T10741172
K1P1 141615Z AUTO 31010G17KT 10SM CLR M07/M17 A2959 RMK AO2 T10711171
K1P1 141555Z AUTO 30005KT 10SM CLR M08/M16 A2959 RMK AO2 T10761161
K1P1 141535Z AUTO 27007KT 10SM BKN085 M07/M16 A2959 RMK AO2 T10751161
K1P1 141515Z AUTO 29006KT 10SM SCT085 BKN110 M08/M16 A2959 RMK AO2 T10821164
K1P1 141455Z AUTO 28006KT 10SM BKN110 M09/M16 A2959 RMK AO2 T10881162
K1P1 141435Z AUTO 28004KT 10SM BKN090 OVC110 M09/M16 A2958 RMK AO2 T10931162
K1P1 141415Z AUTO 00000KT 10SM SCT070 OVC090 M10/M16 A2958 RMK AO2 T10971160
K1P1 141355Z AUTO 33003KT 10SM SCT075 BKN090 BKN110 M10/M16 A2958 RMK AO2 T11001160
K1P1 141335Z AUTO 30003KT 10SM SCT065 BKN090 OVC120 M10/M16 A2957 RMK AO2 T11051157
K1P1 141315Z AUTO 30003KT 10SM SCT065 BKN075 OVC095 M11/M16 A2957 RMK AO2 T11111156
K1P1 141255Z AUTO 00000KT 10SM BKN060 OVC075 M11/M16 A2957 RMK AO2 T11151156
K1P1 141235Z AUTO 00000KT 10SM OVC070 M11/M16 A2957 RMK AO2 T11151157
K1P1 141215Z AUTO 00000KT 10SM OVC070 M11/M16 A2956 RMK AO2 T11151157
K1P1 141155Z AUTO 28003KT 10SM OVC070 M11/M16 A2956 RMK AO2 T11131158 11111 21138